Calpella, CA (95418)

6:34 PM PST on February 21, 2017 (GMT -0800)
Mendocino College Ukiah Campus | | Change Station
Active Advisory: Small Craft Advisory

Elev 741 ft 39.19 °N, 123.23 °W | Updated 4 minutes ago

Overcast
Overcast
48.4 °F
Feels Like 48 °F
N
1.0
Wind Variable Wind from West
Gusts 1.0 mph

Today
High -- | Low -- °F
--% Chance of Precip.
Yesterday
High -- | Low -- °F
Precip. -- in
Pressure 30.18 in
Visibility 10.0 miles
Clouds Overcast 8000 ft
Windchill 48 °F
Dew Point 43 °F
Humidity 81%
Rainfall 0.36 in
Snow Depth Not available.
6:56 AM 5:57 PM
Waning Crescent, 21% visible
METAR KUKI 220156Z AUTO VRB04KT 10SM OVC080 10/06 A3018 RMK AO2 SLP219 T01000056
Pressure 30.18 in
Visibility 10.0 miles
Clouds Overcast 8000 ft
Windchill 48 °F
Dew Point 43 °F
Humidity 81%
Rainfall 0.36 in
Snow Depth Not available.
6:56 AM 5:57 PM
Waning Crescent, 21% visible
METAR KUKI 220156Z AUTO VRB04KT 10SM OVC080 10/06 A3018 RMK AO2 SLP219 T01000056

Get Your Daily Forecast Email!

Thanks for signing up!

Be on the lookout for a verification email in your inbox.

You'll start receiving the daily forecast at 8 AM.

×

10-Day Weather Forecast

Almanac

Astronomy

Feb. 21, 2017 Rise Set
Actual Time
Civil Twilight
Nautical Twilight
Astronomical Twilight
Moon
Length of Visible Light
Length of Day
Tomorrow will be .
, % of the Moon is Illuminated

Today's Extremes

State Highs State Lows

Community

WunderPhotos

Upload Photos

1,962,540 photos uploaded!

WunderBlog® & News

Nearby

Air Quality

  Air Quality AQ Index Pollutant
Not available.

Snow Depth

Station Depth Elevation

Earthquake Activity

City Distance Mag. Time & Date
Minimum magnitude displayed is 2.5.

Coastal Water Temperatures

Place Temperature

Stations

Nearby Weather Stations

Station Location Temp. Windchill Dew Point Humidity Wind Precip. Elev Updated Type
                   

Watches & Warnings

Small Craft Advisory
Issued: 3:18 PM PST Feb. 21, 2017 – National Weather Service

... Small Craft Advisory remains in effect until 3 am Wednesday...

* winds... W to NW 10 to 20 kt.

* Waves... W 10 to 11 ft at around 13 seconds.

Precautionary/preparedness actions...

A Small Craft Advisory means that hazardous wave conditions will
impact small craft. Inexperienced mariners, especially those
operating smaller vessels, should avoid navigating in these
conditions.